Mae Sot, Thailand
Current Conditions -  °F | °C
As of 8:00 AM on Friday 19 Dec 2014 (Local Time) from VTPP Reporting Station
Clear Clear  
Wind Chill: 68°   Ceiling: Unl
Heat Index: 68°   Visibility: 4mi
Dew Point: 57°   Wind: 3mph
Humidity: 68%   Direction: 10°N
Pressure: 30.12"   Gusts: NA
Location:  16.71°N, 98.57°E
Report Text: VTPP 190100Z 01003KT 7000 NSC 20/14 Q1020
Loading
Personal Weather Stations






























Interactive Weather Map New forecast layout! Learn more

10-Day Weather Forecast

Advertisements
Track Severe Weather on mobile